createdAt,value
2022-07-31T00:02:29.752Z,100495.23
2022-07-31T00:05:01.308Z,100491.89
2022-07-31T00:07:33.213Z,100503.41
2022-07-31T00:10:05.686Z,100507.00
2022-07-31T00:12:37.327Z,100505.70
2022-07-31T00:15:14.337Z,100497.70
2022-07-31T00:17:46.429Z,100494.34
2022-07-31T00:20:19.445Z,100496.41
2022-07-31T00:22:51.088Z,100493.70
2022-07-31T00:25:22.866Z,100490.90
2022-07-31T00:27:54.770Z,100493.91
2022-07-31T00:30:26.611Z,100495.10
2022-07-31T00:32:58.331Z,100493.05
2022-07-31T00:35:31.468Z,100489.70
2022-07-31T00:40:36.572Z,100490.77
2022-07-31T00:43:08.024Z,100494.80
2022-07-31T00:45:40.745Z,100485.16
2022-07-31T00:48:14.318Z,100491.39
2022-07-31T00:50:46.127Z,100492.51
2022-07-31T00:53:18.321Z,100484.85
2022-07-31T00:55:51.349Z,100486.25
2022-07-31T00:58:23.768Z,100488.16
2022-07-31T01:00:55.886Z,100496.40
2022-07-31T01:03:27.696Z,100484.61
2022-07-31T01:05:59.710Z,100480.20
2022-07-31T01:08:32.150Z,100481.36
2022-07-31T01:11:26.429Z,100482.66
2022-07-31T01:14:03.184Z,100481.50
2022-07-31T01:16:39.239Z,100481.30
2022-07-31T01:19:22.795Z,100478.91
2022-07-31T01:22:01.791Z,100476.00
2022-07-31T01:24:55.217Z,100482.77
2022-07-31T01:28:03.187Z,100482.91
2022-07-31T01:30:43.939Z,100471.45
2022-07-31T01:33:18.081Z,100478.76
2022-07-31T01:35:55.669Z,100475.66
2022-07-31T01:38:31.789Z,100481.80
2022-07-31T01:41:06.592Z,100479.86
2022-07-31T01:43:44.026Z,100476.20
2022-07-31T01:46:18.311Z,100473.36
2022-07-31T01:48:52.188Z,100469.16
2022-07-31T01:51:25.394Z,100480.40
2022-07-31T01:53:58.799Z,100473.80
2022-07-31T01:56:34.405Z,100466.16
2022-07-31T01:59:18.721Z,100464.97
2022-07-31T02:01:41.917Z,100457.52
2022-07-31T02:04:15.762Z,100462.91
2022-07-31T02:06:49.707Z,100461.81
2022-07-31T02:09:24.234Z,100459.42
2022-07-31T02:11:56.750Z,100446.08
2022-07-31T02:14:30.762Z,100444.13
2022-07-31T02:17:03.599Z,100447.58
2022-07-31T02:19:36.346Z,100436.57
2022-07-31T02:22:08.811Z,100434.22
2022-07-31T02:24:40.691Z,100426.12
2022-07-31T02:27:54.041Z,100436.44
2022-07-31T02:29:48.851Z,100432.89
2022-07-31T02:32:20.675Z,100428.92
2022-07-31T02:34:53.918Z,100428.92
2022-07-31T02:37:27.413Z,100433.43
2022-07-31T02:40:00.751Z,100434.08
2022-07-31T02:42:32.625Z,100433.84
2022-07-31T02:45:04.619Z,100429.43
2022-07-31T02:47:36.730Z,100429.38
2022-07-31T02:50:09.339Z,100427.05
2022-07-31T02:52:41.328Z,100428.75
2022-07-31T02:55:14.478Z,100422.53
2022-07-31T02:57:48.254Z,100417.24
2022-07-31T03:00:27.587Z,100417.55
2022-07-31T03:02:59.499Z,100421.69
2022-07-31T03:05:31.884Z,100413.00
2022-07-31T03:08:03.835Z,100419.05
2022-07-31T03:10:35.430Z,100416.49
2022-07-31T03:13:08.113Z,100425.98
2022-07-31T03:15:41.808Z,100419.70
2022-07-31T03:18:19.070Z,100424.48
2022-07-31T03:20:58.725Z,100420.48
2022-07-31T03:23:33.144Z,100420.90
2022-07-31T03:26:06.672Z,100421.88
2022-07-31T03:28:38.384Z,100423.50
2022-07-31T03:31:10.864Z,100419.40
2022-07-31T03:33:43.209Z,100424.69
2022-07-31T03:36:14.857Z,100418.64
2022-07-31T03:38:50.377Z,100424.55
2022-07-31T03:41:20.055Z,100432.69
2022-07-31T03:43:52.280Z,100434.08
2022-07-31T03:46:26.114Z,100435.93
2022-07-31T03:48:58.185Z,100433.53
2022-07-31T03:51:30.230Z,100428.89
2022-07-31T03:54:02.256Z,100436.97
2022-07-31T03:56:35.182Z,100433.33
2022-07-31T03:59:07.206Z,100434.83
2022-07-31T04:01:58.212Z,100435.12
2022-07-31T04:04:18.241Z,100432.03
2022-07-31T04:06:53.783Z,100429.98
2022-07-31T04:09:28.473Z,100430.30
2022-07-31T04:12:06.253Z,100431.14
2022-07-31T04:14:43.768Z,100419.63
2022-07-31T04:17:19.676Z,100421.14
2022-07-31T04:19:53.587Z,100430.08
2022-07-31T04:22:29.712Z,100425.20
2022-07-31T04:25:05.523Z,100423.84
2022-07-31T04:27:47.912Z,100426.73
2022-07-31T04:30:20.604Z,100427.67
2022-07-31T04:32:58.746Z,100427.15
2022-07-31T04:35:33.200Z,100427.44
2022-07-31T04:38:04.890Z,100423.15
2022-07-31T04:40:36.597Z,100425.08
2022-07-31T04:43:08.891Z,100428.08
2022-07-31T04:45:41.959Z,100423.35
2022-07-31T04:48:18.431Z,100424.89
2022-07-31T04:50:50.015Z,100428.45
2022-07-31T04:53:22.280Z,100427.23
2022-07-31T04:56:11.626Z,100424.98
2022-07-31T04:58:42.989Z,100429.56
2022-07-31T05:01:16.373Z,100427.72
2022-07-31T05:03:47.809Z,100431.03
2022-07-31T05:06:18.936Z,100422.70
2022-07-31T05:08:50.420Z,100422.53
2022-07-31T05:11:25.570Z,100428.69
2022-07-31T05:14:02.348Z,100426.59
2022-07-31T05:16:34.759Z,100427.69
2022-07-31T05:19:13.659Z,100421.45
2022-07-31T05:21:51.407Z,100431.04
2022-07-31T05:24:14.495Z,100438.58
2022-07-31T05:26:45.908Z,100427.79
2022-07-31T05:29:17.786Z,100426.09
2022-07-31T05:32:00.224Z,100432.03
2022-07-31T05:34:22.534Z,100425.44
2022-07-31T05:36:54.422Z,100430.83
2022-07-31T05:39:28.646Z,100423.84
2022-07-31T05:41:59.816Z,100427.59
2022-07-31T05:44:32.620Z,100434.39
2022-07-31T05:47:04.224Z,100424.79
2022-07-31T05:49:35.845Z,100420.14
2022-07-31T05:52:07.687Z,100419.80
2022-07-31T05:54:38.959Z,100426.59
2022-07-31T05:57:10.374Z,100424.23
2022-07-31T05:59:41.691Z,100414.95
2022-07-31T06:02:13.058Z,100419.58
2022-07-31T06:04:44.387Z,100415.81
2022-07-31T06:07:16.030Z,100417.85
2022-07-31T06:09:48.855Z,100404.50
2022-07-31T06:12:21.942Z,100426.05
2022-07-31T06:14:53.577Z,100420.13
2022-07-31T06:17:40.255Z,100419.84
2022-07-31T06:20:02.187Z,100419.91
2022-07-31T06:22:33.682Z,100421.03
2022-07-31T06:25:05.237Z,100421.30
2022-07-31T06:27:37.505Z,100425.48
2022-07-31T06:30:12.144Z,100423.78
2022-07-31T06:32:43.718Z,100426.84
2022-07-31T06:35:15.685Z,100415.20
2022-07-31T06:37:47.018Z,100420.25
2022-07-31T06:40:18.784Z,100422.53
2022-07-31T06:42:50.513Z,100415.60
2022-07-31T06:45:41.896Z,100398.36
2022-07-31T06:47:55.918Z,100406.76
2022-07-31T06:50:27.536Z,100416.16
2022-07-31T06:53:00.446Z,100408.80
2022-07-31T06:55:31.800Z,100408.19
2022-07-31T06:58:04.323Z,100415.32
2022-07-31T07:00:36.395Z,100415.50
2022-07-31T07:03:08.103Z,100417.99
2022-07-31T07:05:42.798Z,100417.23
2022-07-31T07:08:13.071Z,100409.80
2022-07-31T07:10:44.703Z,100409.80
2022-07-31T07:13:16.581Z,100414.75
2022-07-31T07:15:48.380Z,100415.84
2022-07-31T07:18:21.809Z,100418.33
2022-07-31T07:20:54.051Z,100411.63
2022-07-31T07:23:25.904Z,100413.91
2022-07-31T07:25:57.353Z,100411.62
2022-07-31T07:28:31.186Z,100411.19
2022-07-31T07:31:03.192Z,100400.81
2022-07-31T07:33:41.533Z,100406.55
2022-07-31T07:36:08.615Z,100410.42
2022-07-31T07:38:41.936Z,100405.88
2022-07-31T07:41:13.797Z,100407.29
2022-07-31T07:43:51.551Z,100408.62
2022-07-31T07:46:23.591Z,100403.86
2022-07-31T07:48:57.771Z,100403.63
2022-07-31T07:51:29.678Z,100407.08
2022-07-31T07:54:01.794Z,100410.31
2022-07-31T07:56:33.358Z,100400.58
2022-07-31T07:59:04.797Z,100405.19
2022-07-31T08:01:36.841Z,100405.80
2022-07-31T08:04:09.495Z,100400.67
2022-07-31T08:06:41.518Z,100399.70
2022-07-31T08:09:13.126Z,100401.83
2022-07-31T08:11:45.380Z,100401.72
2022-07-31T08:14:17.694Z,100412.00
2022-07-31T08:16:55.197Z,100408.30
2022-07-31T08:19:33.112Z,100406.33
2022-07-31T08:22:06.503Z,100420.72
2022-07-31T08:24:38.422Z,100424.49
2022-07-31T08:27:39.556Z,100414.28
2022-07-31T08:30:07.251Z,100422.97
2022-07-31T08:32:42.358Z,100418.66
2022-07-31T08:35:20.331Z,100422.83
2022-07-31T08:38:03.573Z,100423.77
2022-07-31T08:40:34.928Z,100427.05
2022-07-31T08:44:03.175Z,100419.38
2022-07-31T08:45:52.842Z,100417.78
2022-07-31T08:48:29.419Z,100424.39
2022-07-31T08:51:02.308Z,100420.86
2022-07-31T08:53:35.853Z,100420.55
2022-07-31T08:56:09.848Z,100413.70
2022-07-31T08:58:42.205Z,100411.52
2022-07-31T09:01:15.039Z,100408.92
2022-07-31T09:03:48.858Z,100414.02
2022-07-31T09:06:20.376Z,100415.61
2022-07-31T09:08:54.825Z,100411.45
2022-07-31T09:11:27.103Z,100410.16
2022-07-31T09:14:03.583Z,100407.92
2022-07-31T09:16:38.604Z,100421.52
2022-07-31T09:19:52.328Z,100420.41
2022-07-31T09:21:46.820Z,100418.23
2022-07-31T09:24:40.802Z,100417.95
2022-07-31T09:27:14.121Z,100414.97
2022-07-31T09:29:49.738Z,100421.67
2022-07-31T09:32:22.522Z,100412.48
2022-07-31T09:34:57.429Z,100421.67
2022-07-31T09:37:29.451Z,100423.86
2022-07-31T09:40:00.876Z,100422.30
2022-07-31T09:42:55.663Z,100424.67
2022-07-31T09:45:28.093Z,100424.38
2022-07-31T09:48:14.340Z,100417.30
2022-07-31T09:51:02.255Z,100415.92
2022-07-31T09:53:50.307Z,100407.93
2022-07-31T09:56:37.486Z,100417.20
2022-07-31T09:59:11.813Z,100415.58
2022-07-31T10:01:44.502Z,100415.47
2022-07-31T10:04:17.467Z,100404.30
2022-07-31T10:06:51.969Z,100407.08
2022-07-31T10:09:25.672Z,100401.82
2022-07-31T10:12:02.446Z,100399.21
2022-07-31T10:14:35.944Z,100386.94
2022-07-31T10:17:08.264Z,100394.94
2022-07-31T10:19:43.706Z,100388.02
2022-07-31T10:22:18.585Z,100393.99
2022-07-31T10:24:52.699Z,100394.66
2022-07-31T10:27:24.471Z,100391.00
2022-07-31T10:29:56.125Z,100390.16
2022-07-31T10:32:27.827Z,100383.49
2022-07-31T10:34:59.815Z,100384.74
2022-07-31T10:37:33.746Z,100383.72
2022-07-31T10:40:28.015Z,100376.41
2022-07-31T10:43:11.165Z,100387.39
2022-07-31T10:45:51.923Z,100375.91
2022-07-31T10:48:24.202Z,100370.54
2022-07-31T10:51:13.813Z,100368.45
2022-07-31T10:54:04.893Z,100373.20
2022-07-31T10:56:49.133Z,100369.52
2022-07-31T10:59:23.335Z,100369.91
2022-07-31T11:01:58.657Z,100375.05
2022-07-31T11:04:31.186Z,100373.98
2022-07-31T11:07:03.164Z,100352.09
2022-07-31T11:09:50.494Z,100365.77
2022-07-31T11:12:18.797Z,100363.91
2022-07-31T11:14:52.105Z,100366.99
2022-07-31T11:18:23.520Z,100371.18
2022-07-31T11:20:10.178Z,100367.25
2022-07-31T11:22:43.533Z,100380.63
2022-07-31T11:25:16.377Z,100371.18
2022-07-31T11:27:48.179Z,100373.25
2022-07-31T11:30:19.899Z,100364.90
2022-07-31T11:32:55.279Z,100373.76
2022-07-31T11:35:28.373Z,100372.55
2022-07-31T11:38:00.821Z,100360.48
2022-07-31T11:40:33.143Z,100366.88
2022-07-31T11:43:26.933Z,100364.18
2022-07-31T11:46:08.728Z,100370.59
2022-07-31T11:48:45.576Z,100372.91
2022-07-31T11:51:20.258Z,100374.55
2022-07-31T11:53:56.756Z,100369.86
2022-07-31T11:56:53.151Z,100355.55
2022-07-31T11:59:45.199Z,100350.43
2022-07-31T12:02:14.621Z,100353.67
2022-07-31T12:04:46.186Z,100356.70
2022-07-31T12:07:18.379Z,100352.19
2022-07-31T12:10:02.327Z,100352.28
2022-07-31T12:12:23.958Z,100353.19
2022-07-31T12:14:57.158Z,100344.70
2022-07-31T12:17:28.949Z,100347.45
2022-07-31T12:20:04.023Z,100339.74
2022-07-31T12:22:36.045Z,100338.41
2022-07-31T12:25:09.613Z,100330.62
2022-07-31T12:27:41.505Z,100332.36
2022-07-31T12:30:21.134Z,100331.16
2022-07-31T12:32:53.438Z,100324.98
2022-07-31T12:35:25.143Z,100316.56
2022-07-31T12:37:59.039Z,100321.56
2022-07-31T12:40:30.963Z,100310.38
2022-07-31T12:43:04.050Z,100319.80
2022-07-31T12:45:38.676Z,100307.63
2022-07-31T12:48:10.049Z,100313.86
2022-07-31T12:50:41.654Z,100312.17
2022-07-31T12:53:13.546Z,100309.45
2022-07-31T12:55:46.437Z,100321.26
2022-07-31T12:58:17.639Z,100318.19
2022-07-31T13:00:51.956Z,100313.56
2022-07-31T13:03:23.456Z,100311.86
2022-07-31T13:05:55.754Z,100319.62
2022-07-31T13:08:27.286Z,100312.89
2022-07-31T13:10:58.677Z,100319.81
2022-07-31T13:13:30.430Z,100309.87
2022-07-31T13:16:03.707Z,100311.02
2022-07-31T13:18:36.187Z,100307.89
2022-07-31T13:21:07.964Z,100309.98
2022-07-31T13:23:40.595Z,100301.37
2022-07-31T13:26:16.547Z,100299.06
2022-07-31T13:28:48.290Z,100291.23
2022-07-31T13:31:21.396Z,100296.80
2022-07-31T13:33:54.323Z,100291.55
2022-07-31T13:36:26.032Z,100290.33
2022-07-31T13:38:57.763Z,100280.15
2022-07-31T13:41:30.798Z,100278.58
2022-07-31T13:44:02.851Z,100291.16
2022-07-31T13:46:34.091Z,100283.45
2022-07-31T13:49:07.526Z,100285.11
2022-07-31T13:51:40.755Z,100281.86
2022-07-31T13:54:12.332Z,100287.13
2022-07-31T13:56:44.064Z,100284.78
2022-07-31T13:59:15.841Z,100291.52
2022-07-31T14:02:04.203Z,100290.98
2022-07-31T14:04:23.037Z,100294.75
2022-07-31T14:06:56.569Z,100295.03
2022-07-31T14:09:29.545Z,100289.52
2022-07-31T14:12:04.531Z,100285.38
2022-07-31T14:14:35.603Z,100289.19
2022-07-31T14:17:07.393Z,100279.30
2022-07-31T14:19:44.262Z,100290.53
2022-07-31T14:22:14.189Z,100287.10
2022-07-31T14:24:50.989Z,100292.58
2022-07-31T14:27:19.414Z,100284.14
2022-07-31T14:29:51.201Z,100279.48
2022-07-31T14:32:23.657Z,100280.36
2022-07-31T14:34:56.402Z,100283.12
2022-07-31T14:37:28.204Z,100279.34
2022-07-31T14:39:59.787Z,100269.35
2022-07-31T14:42:31.343Z,100282.16
2022-07-31T14:45:04.583Z,100281.70
2022-07-31T14:47:36.910Z,100277.60
2022-07-31T14:50:12.922Z,100270.61
2022-07-31T14:52:42.670Z,100275.16
2022-07-31T14:55:14.201Z,100274.03
2022-07-31T14:57:47.063Z,100273.41
2022-07-31T15:00:19.089Z,100281.21
2022-07-31T15:02:53.516Z,100276.70
2022-07-31T15:06:48.658Z,100285.85
2022-07-31T15:08:03.599Z,100274.90
2022-07-31T15:10:35.094Z,100279.95
2022-07-31T15:13:08.886Z,100268.97
2022-07-31T15:15:42.779Z,100272.62
2022-07-31T15:18:18.746Z,100270.05
2022-07-31T15:20:50.514Z,100268.32
2022-07-31T15:23:25.905Z,100270.35
2022-07-31T15:26:02.060Z,100260.87
2022-07-31T15:28:33.592Z,100255.13
2022-07-31T15:31:05.532Z,100254.09
2022-07-31T15:33:39.599Z,100254.17
2022-07-31T15:36:16.034Z,100251.60
2022-07-31T15:38:47.239Z,100253.77
2022-07-31T15:41:24.637Z,100250.24
2022-07-31T15:44:02.159Z,100246.71
2022-07-31T15:46:40.072Z,100242.62
2022-07-31T15:49:11.819Z,100245.64
2022-07-31T15:51:43.454Z,100244.50
2022-07-31T15:54:15.298Z,100244.64
2022-07-31T15:56:47.627Z,100238.46
2022-07-31T15:59:20.568Z,100243.28
2022-07-31T16:01:53.010Z,100247.51
2022-07-31T16:04:25.222Z,100245.38
2022-07-31T16:06:58.992Z,100240.04
2022-07-31T16:09:30.434Z,100238.94
2022-07-31T16:12:03.538Z,100243.87
2022-07-31T16:14:35.307Z,100246.51
2022-07-31T16:17:07.377Z,100237.28
2022-07-31T16:19:39.094Z,100243.55
2022-07-31T16:22:10.605Z,100244.52
2022-07-31T16:24:41.998Z,100239.97
2022-07-31T16:27:13.418Z,100252.53
2022-07-31T16:29:59.052Z,100245.59
2022-07-31T16:32:18.947Z,100242.20
2022-07-31T16:34:54.042Z,100246.27
2022-07-31T16:37:49.941Z,100245.75
2022-07-31T16:39:57.465Z,100240.48
2022-07-31T16:42:29.249Z,100244.84
2022-07-31T16:45:00.725Z,100236.20
2022-07-31T16:47:50.990Z,100232.45
2022-07-31T16:50:05.244Z,100236.32
2022-07-31T16:52:36.784Z,100240.30
2022-07-31T16:55:08.751Z,100243.64
2022-07-31T16:57:40.487Z,100236.00
2022-07-31T17:00:12.759Z,100240.67
2022-07-31T17:02:45.889Z,100244.48
2022-07-31T17:05:17.527Z,100238.83
2022-07-31T17:07:49.191Z,100240.33
2022-07-31T17:10:21.990Z,100240.36
2022-07-31T17:12:54.872Z,100235.98
2022-07-31T17:15:26.239Z,100241.95
2022-07-31T17:17:58.092Z,100247.72
2022-07-31T17:20:29.755Z,100242.20
2022-07-31T17:23:03.423Z,100246.23
2022-07-31T17:25:36.536Z,100249.52
2022-07-31T17:28:11.057Z,100237.88
2022-07-31T17:30:40.890Z,100239.60
2022-07-31T17:33:14.316Z,100243.52
2022-07-31T17:35:45.744Z,100245.13
2022-07-31T17:38:17.365Z,100257.20
2022-07-31T17:40:48.786Z,100254.91
2022-07-31T17:43:27.794Z,100258.67
2022-07-31T17:46:05.837Z,100260.27
2022-07-31T17:48:27.715Z,100254.10
2022-07-31T17:50:59.752Z,100258.17
2022-07-31T17:53:54.758Z,100245.47
2022-07-31T17:56:08.200Z,100247.99
2022-07-31T17:58:38.759Z,100264.61
2022-07-31T18:01:10.350Z,100260.47
2022-07-31T18:03:42.651Z,100260.41
2022-07-31T18:06:15.977Z,100263.72
2022-07-31T18:08:47.387Z,100269.28
2022-07-31T18:11:18.793Z,100276.42
2022-07-31T18:13:51.904Z,100265.25
2022-07-31T18:16:25.280Z,100265.53
2022-07-31T18:18:56.977Z,100269.23
2022-07-31T18:21:28.949Z,100268.61
2022-07-31T18:24:05.017Z,100273.97
2022-07-31T18:26:35.329Z,100276.94
2022-07-31T18:29:06.745Z,100279.33
2022-07-31T18:31:38.395Z,100275.31
2022-07-31T18:34:09.883Z,100282.29
2022-07-31T18:36:41.231Z,100272.41
2022-07-31T18:39:12.632Z,100277.52
2022-07-31T18:41:48.647Z,100269.73
2022-07-31T18:44:17.271Z,100282.12
2022-07-31T18:46:48.595Z,100287.94
2022-07-31T18:51:02.346Z,100292.85
2022-07-31T18:51:54.413Z,100295.39
2022-07-31T18:54:25.708Z,100300.94
2022-07-31T18:56:57.231Z,100302.64
2022-07-31T18:59:29.354Z,100317.59
2022-07-31T19:02:01.011Z,100319.45
2022-07-31T19:04:32.745Z,100308.09
2022-07-31T19:07:04.373Z,100316.29
2022-07-31T19:09:35.698Z,100315.27
2022-07-31T19:12:08.801Z,100320.23
2022-07-31T19:14:40.772Z,100325.65
2022-07-31T19:17:12.656Z,100324.79
2022-07-31T19:19:54.588Z,100330.30
2022-07-31T19:22:20.840Z,100326.50
2022-07-31T19:24:57.497Z,100336.05
2022-07-31T19:27:46.953Z,100327.70
2022-07-31T19:30:03.633Z,100337.62
2022-07-31T19:32:35.645Z,100347.81
2022-07-31T19:35:08.329Z,100341.07
2022-07-31T19:37:39.640Z,100352.11
2022-07-31T19:40:11.983Z,100347.48
2022-07-31T19:42:43.795Z,100353.67
2022-07-31T19:45:15.462Z,100355.37
2022-07-31T19:47:47.317Z,100352.78
2022-07-31T19:50:18.904Z,100354.60
2022-07-31T19:52:50.285Z,100347.30
2022-07-31T19:55:22.026Z,100351.45
2022-07-31T19:57:54.187Z,100350.01
2022-07-31T20:00:26.425Z,100353.70
2022-07-31T20:02:58.165Z,100348.23
2022-07-31T20:05:29.864Z,100347.54
2022-07-31T20:08:01.629Z,100345.06
2022-07-31T20:10:33.096Z,100346.81
2022-07-31T20:13:04.831Z,100346.59
2022-07-31T20:15:51.596Z,100343.15
2022-07-31T20:18:09.806Z,100345.53
2022-07-31T20:20:42.814Z,100348.98
2022-07-31T20:23:14.145Z,100350.38
2022-07-31T20:25:45.794Z,100342.73
2022-07-31T20:28:17.372Z,100338.72
2022-07-31T20:30:49.079Z,100350.83
2022-07-31T20:33:20.815Z,100350.19
2022-07-31T20:35:52.405Z,100343.19
2022-07-31T20:38:25.657Z,100349.34
2022-07-31T20:40:57.254Z,100345.90
2022-07-31T20:43:30.802Z,100350.86
2022-07-31T20:46:02.348Z,100350.00
2022-07-31T20:48:33.800Z,100348.27
2022-07-31T20:51:06.330Z,100354.20
2022-07-31T20:53:38.047Z,100349.02
2022-07-31T20:56:10.007Z,100353.56
2022-07-31T20:58:41.961Z,100353.02
2022-07-31T21:01:15.521Z,100352.27
2022-07-31T21:03:48.199Z,100344.27
2022-07-31T21:06:21.249Z,100352.13
2022-07-31T21:08:55.770Z,100345.13
2022-07-31T21:11:31.361Z,100339.38
2022-07-31T21:14:03.334Z,100336.38
2022-07-31T21:16:34.779Z,100340.88
2022-07-31T21:19:09.781Z,100337.68
2022-07-31T21:21:41.673Z,100338.42
2022-07-31T21:24:12.957Z,100343.27
2022-07-31T21:26:46.324Z,100337.94
2022-07-31T21:29:20.171Z,100337.30
2022-07-31T21:31:52.028Z,100335.09
2022-07-31T21:34:23.502Z,100328.85
2022-07-31T21:36:55.062Z,100344.02
2022-07-31T21:39:26.878Z,100343.78
2022-07-31T21:41:58.732Z,100331.63
2022-07-31T21:44:30.444Z,100350.38
2022-07-31T21:47:05.114Z,100346.83
2022-07-31T21:49:36.816Z,100344.50
2022-07-31T21:52:10.020Z,100337.84
2022-07-31T21:54:41.196Z,100339.22
2022-07-31T21:57:13.162Z,100340.27
2022-07-31T21:59:44.842Z,100341.02
2022-07-31T22:02:16.382Z,100337.02
2022-07-31T22:05:05.782Z,100344.80
2022-07-31T22:07:55.301Z,100343.28
2022-07-31T22:10:31.624Z,100346.11
2022-07-31T22:13:03.494Z,100351.23
2022-07-31T22:15:58.630Z,100342.49
2022-07-31T22:18:08.859Z,100339.23
2022-07-31T22:20:41.245Z,100342.86
2022-07-31T22:23:12.817Z,100347.45
2022-07-31T22:25:46.716Z,100346.41
2022-07-31T22:28:20.992Z,100344.10
2022-07-31T22:30:53.048Z,100348.73
2022-07-31T22:33:25.292Z,100348.06
2022-07-31T22:36:00.176Z,100343.15
2022-07-31T22:38:32.636Z,100350.25
2022-07-31T22:41:04.149Z,100350.56
2022-07-31T22:44:10.074Z,100348.34
2022-07-31T22:46:10.992Z,100347.39
2022-07-31T22:48:42.416Z,100334.31
2022-07-31T22:51:14.758Z,100335.02
2022-07-31T22:53:48.987Z,100342.20
2022-07-31T22:56:20.496Z,100334.92
2022-07-31T22:58:51.920Z,100332.41
2022-07-31T23:01:23.402Z,100335.67
2022-07-31T23:03:54.622Z,100335.10
2022-07-31T23:06:30.626Z,100331.84
2022-07-31T23:09:00.119Z,100323.95
2022-07-31T23:11:32.730Z,100331.45
2022-07-31T23:14:04.256Z,100325.70
2022-07-31T23:16:35.528Z,100324.84
2022-07-31T23:19:07.514Z,100325.50
2022-07-31T23:21:39.031Z,100321.25
2022-07-31T23:24:10.841Z,100319.13
2022-07-31T23:26:41.967Z,100316.66
2022-07-31T23:29:13.599Z,100317.80
2022-07-31T23:31:46.630Z,100310.04
2022-07-31T23:34:18.062Z,100308.20
2022-07-31T23:36:49.427Z,100318.30
2022-07-31T23:39:21.969Z,100324.34
2022-07-31T23:42:11.103Z,100322.02
2022-07-31T23:44:42.723Z,100320.89
2022-07-31T23:47:16.160Z,100319.06
2022-07-31T23:49:48.047Z,100314.35
2022-07-31T23:52:19.649Z,100316.38
2022-07-31T23:54:51.052Z,100308.39
2022-07-31T23:57:22.429Z,100315.97
2022-07-31T23:59:53.990Z,100312.34
